sensor_id;sensor_type;location;lat;lon;timestamp;P1;durP1;ratioP1;P2;durP2;ratioP2
26963;SDS011;14521;48.148;-1.656;2022-11-15T00:01:35;2.28;;;0.85;;
26963;SDS011;14521;48.148;-1.656;2022-11-15T00:05:17;1.52;;;0.80;;
26963;SDS011;14521;48.148;-1.656;2022-11-15T00:08:58;5.00;;;0.90;;
26963;SDS011;14521;48.148;-1.656;2022-11-15T00:12:39;4.63;;;0.80;;
26963;SDS011;14521;48.148;-1.656;2022-11-15T00:16:20;1.95;;;0.90;;
26963;SDS011;14521;48.148;-1.656;2022-11-15T00:20:01;2.78;;;0.80;;
26963;SDS011;14521;48.148;-1.656;2022-11-15T00:23:41;2.53;;;0.82;;
26963;SDS011;14521;48.148;-1.656;2022-11-15T00:27:22;1.65;;;0.73;;
26963;SDS011;14521;48.148;-1.656;2022-11-15T00:31:04;1.35;;;0.85;;
26963;SDS011;14521;48.148;-1.656;2022-11-15T00:34:46;1.75;;;1.10;;
26963;SDS011;14521;48.148;-1.656;2022-11-15T00:38:34;1.40;;;1.08;;
26963;SDS011;14521;48.148;-1.656;2022-11-15T00:42:15;0.90;;;0.70;;
26963;SDS011;14521;48.148;-1.656;2022-11-15T00:45:56;1.48;;;0.77;;
26963;SDS011;14521;48.148;-1.656;2022-11-15T00:49:37;2.33;;;1.00;;
26963;SDS011;14521;48.148;-1.656;2022-11-15T00:53:18;1.10;;;0.70;;
26963;SDS011;14521;48.148;-1.656;2022-11-15T00:56:59;1.98;;;0.80;;
26963;SDS011;14521;48.148;-1.656;2022-11-15T01:00:40;2.58;;;0.73;;
26963;SDS011;14521;48.148;-1.656;2022-11-15T01:04:20;2.78;;;1.13;;
26963;SDS011;14521;48.148;-1.656;2022-11-15T01:08:01;3.97;;;0.60;;
26963;SDS011;14521;48.148;-1.656;2022-11-15T01:11:42;2.08;;;0.80;;
26963;SDS011;14521;48.148;-1.656;2022-11-15T01:15:23;3.17;;;0.80;;
26963;SDS011;14521;48.148;-1.656;2022-11-15T01:19:04;1.52;;;0.73;;
26963;SDS011;14521;48.148;-1.656;2022-11-15T01:22:45;0.85;;;0.77;;
26963;SDS011;14521;48.148;-1.656;2022-11-15T01:26:25;1.02;;;0.82;;
26963;SDS011;14521;48.148;-1.656;2022-11-15T01:30:06;1.70;;;0.70;;
26963;SDS011;14521;48.148;-1.656;2022-11-15T01:33:48;2.47;;;0.90;;
26963;SDS011;14521;48.148;-1.656;2022-11-15T01:37:29;4.30;;;0.98;;
26963;SDS011;14521;48.148;-1.656;2022-11-15T01:41:14;1.60;;;0.60;;
26963;SDS011;14521;48.148;-1.656;2022-11-15T01:44:57;1.98;;;0.60;;
26963;SDS011;14521;48.148;-1.656;2022-11-15T01:48:37;0.93;;;0.75;;
26963;SDS011;14521;48.148;-1.656;2022-11-15T01:52:19;4.25;;;0.98;;
26963;SDS011;14521;48.148;-1.656;2022-11-15T01:56:05;3.03;;;0.60;;
26963;SDS011;14521;48.148;-1.656;2022-11-15T01:59:49;2.58;;;0.80;;
26963;SDS011;14521;48.148;-1.656;2022-11-15T02:03:33;1.23;;;0.70;;
26963;SDS011;14521;48.148;-1.656;2022-11-15T02:07:19;2.35;;;0.70;;
26963;SDS011;14521;48.148;-1.656;2022-11-15T02:11:04;2.85;;;0.68;;
26963;SDS011;14521;48.148;-1.656;2022-11-15T02:14:49;0.80;;;0.60;;
26963;SDS011;14521;48.148;-1.656;2022-11-15T02:18:34;2.60;;;1.00;;
26963;SDS011;14521;48.148;-1.656;2022-11-15T02:30:38;2.78;;;0.80;;
26963;SDS011;14521;48.148;-1.656;2022-11-15T02:34:35;0.75;;;0.52;;
26963;SDS011;14521;48.148;-1.656;2022-11-15T02:38:38;0.73;;;0.55;;
26963;SDS011;14521;48.148;-1.656;2022-11-15T02:42:25;1.10;;;0.52;;
26963;SDS011;14521;48.148;-1.656;2022-11-15T02:46:38;2.22;;;0.68;;
26963;SDS011;14521;48.148;-1.656;2022-11-15T02:50:42;1.38;;;0.80;;
26963;SDS011;14521;48.148;-1.656;2022-11-15T02:54:29;1.02;;;0.60;;
26963;SDS011;14521;48.148;-1.656;2022-11-15T03:06:08;2.30;;;0.63;;
26963;SDS011;14521;48.148;-1.656;2022-11-15T03:10:25;1.65;;;0.50;;
26963;SDS011;14521;48.148;-1.656;2022-11-15T03:18:25;1.17;;;0.40;;
26963;SDS011;14521;48.148;-1.656;2022-11-15T03:22:22;2.30;;;0.75;;
26963;SDS011;14521;48.148;-1.656;2022-11-15T03:26:07;2.30;;;0.55;;
26963;SDS011;14521;48.148;-1.656;2022-11-15T03:29:51;2.35;;;0.60;;
26963;SDS011;14521;48.148;-1.656;2022-11-15T03:33:38;2.38;;;0.60;;
26963;SDS011;14521;48.148;-1.656;2022-11-15T03:37:20;1.40;;;0.50;;
26963;SDS011;14521;48.148;-1.656;2022-11-15T03:41:05;2.30;;;0.50;;
26963;SDS011;14521;48.148;-1.656;2022-11-15T03:45:08;1.63;;;0.40;;
26963;SDS011;14521;48.148;-1.656;2022-11-15T03:48:54;2.58;;;0.90;;
26963;SDS011;14521;48.148;-1.656;2022-11-15T03:52:44;1.75;;;0.40;;
26963;SDS011;14521;48.148;-1.656;2022-11-15T03:56:27;1.90;;;0.50;;
26963;SDS011;14521;48.148;-1.656;2022-11-15T04:00:08;1.60;;;0.70;;
26963;SDS011;14521;48.148;-1.656;2022-11-15T04:03:50;3.47;;;0.55;;
26963;SDS011;14521;48.148;-1.656;2022-11-15T04:07:31;2.67;;;0.52;;
26963;SDS011;14521;48.148;-1.656;2022-11-15T04:11:12;1.48;;;0.40;;
26963;SDS011;14521;48.148;-1.656;2022-11-15T04:14:53;1.23;;;0.40;;
26963;SDS011;14521;48.148;-1.656;2022-11-15T04:18:47;3.17;;;0.47;;
26963;SDS011;14521;48.148;-1.656;2022-11-15T04:22:48;1.33;;;0.63;;
26963;SDS011;14521;48.148;-1.656;2022-11-15T04:26:47;1.13;;;0.47;;
26963;SDS011;14521;48.148;-1.656;2022-11-15T04:30:28;0.93;;;0.45;;
26963;SDS011;14521;48.148;-1.656;2022-11-15T04:34:08;1.02;;;0.30;;
26963;SDS011;14521;48.148;-1.656;2022-11-15T04:37:49;0.43;;;0.30;;
26963;SDS011;14521;48.148;-1.656;2022-11-15T04:41:30;2.47;;;0.40;;
26963;SDS011;14521;48.148;-1.656;2022-11-15T04:45:15;1.33;;;0.50;;
26963;SDS011;14521;48.148;-1.656;2022-11-15T04:48:56;1.85;;;0.40;;
26963;SDS011;14521;48.148;-1.656;2022-11-15T04:52:42;1.90;;;0.60;;
26963;SDS011;14521;48.148;-1.656;2022-11-15T04:56:30;3.17;;;0.70;;
26963;SDS011;14521;48.148;-1.656;2022-11-15T05:00:12;0.60;;;0.43;;
26963;SDS011;14521;48.148;-1.656;2022-11-15T05:03:55;1.90;;;0.55;;
26963;SDS011;14521;48.148;-1.656;2022-11-15T05:07:54;1.27;;;0.52;;
26963;SDS011;14521;48.148;-1.656;2022-11-15T05:11:35;1.63;;;0.40;;
26963;SDS011;14521;48.148;-1.656;2022-11-15T05:15:16;2.63;;;0.47;;
26963;SDS011;14521;48.148;-1.656;2022-11-15T05:18:57;1.52;;;0.52;;
26963;SDS011;14521;48.148;-1.656;2022-11-15T05:22:41;2.15;;;0.43;;
26963;SDS011;14521;48.148;-1.656;2022-11-15T05:26:22;3.42;;;0.50;;
26963;SDS011;14521;48.148;-1.656;2022-11-15T05:30:03;1.83;;;0.60;;
26963;SDS011;14521;48.148;-1.656;2022-11-15T05:33:44;2.55;;;0.60;;
26963;SDS011;14521;48.148;-1.656;2022-11-15T05:37:25;1.65;;;0.60;;
26963;SDS011;14521;48.148;-1.656;2022-11-15T05:41:06;1.73;;;0.50;;
26963;SDS011;14521;48.148;-1.656;2022-11-15T05:44:47;2.30;;;0.40;;
26963;SDS011;14521;48.148;-1.656;2022-11-15T05:48:29;0.47;;;0.30;;
26963;SDS011;14521;48.148;-1.656;2022-11-15T05:52:11;4.30;;;0.50;;
26963;SDS011;14521;48.148;-1.656;2022-11-15T05:55:54;1.65;;;0.35;;
26963;SDS011;14521;48.148;-1.656;2022-11-15T05:59:35;2.25;;;0.40;;
26963;SDS011;14521;48.148;-1.656;2022-11-15T06:03:17;1.58;;;0.50;;
26963;SDS011;14521;48.148;-1.656;2022-11-15T06:06:58;8.65;;;0.50;;
26963;SDS011;14521;48.148;-1.656;2022-11-15T06:10:39;2.38;;;0.75;;
26963;SDS011;14521;48.148;-1.656;2022-11-15T06:14:20;1.80;;;0.40;;
26963;SDS011;14521;48.148;-1.656;2022-11-15T06:18:01;5.80;;;0.88;;
26963;SDS011;14521;48.148;-1.656;2022-11-15T06:21:41;0.95;;;0.40;;
26963;SDS011;14521;48.148;-1.656;2022-11-15T06:25:22;1.00;;;0.50;;
26963;SDS011;14521;48.148;-1.656;2022-11-15T06:29:03;3.45;;;0.70;;
26963;SDS011;14521;48.148;-1.656;2022-11-15T06:32:44;3.67;;;1.45;;
26963;SDS011;14521;48.148;-1.656;2022-11-15T06:36:25;5.05;;;0.47;;
26963;SDS011;14521;48.148;-1.656;2022-11-15T06:40:06;1.98;;;0.77;;
26963;SDS011;14521;48.148;-1.656;2022-11-15T06:43:48;1.00;;;0.50;;
26963;SDS011;14521;48.148;-1.656;2022-11-15T06:47:29;2.58;;;0.70;;
26963;SDS011;14521;48.148;-1.656;2022-11-15T06:51:10;1.48;;;0.45;;
26963;SDS011;14521;48.148;-1.656;2022-11-15T06:54:51;4.03;;;0.60;;
26963;SDS011;14521;48.148;-1.656;2022-11-15T06:58:32;4.10;;;0.50;;
26963;SDS011;14521;48.148;-1.656;2022-11-15T07:02:13;5.75;;;0.80;;
26963;SDS011;14521;48.148;-1.656;2022-11-15T07:05:54;1.75;;;0.80;;
26963;SDS011;14521;48.148;-1.656;2022-11-15T07:09:40;3.45;;;0.70;;
26963;SDS011;14521;48.148;-1.656;2022-11-15T07:13:23;5.75;;;0.85;;
26963;SDS011;14521;48.148;-1.656;2022-11-15T07:17:09;3.97;;;0.60;;
26963;SDS011;14521;48.148;-1.656;2022-11-15T07:20:50;2.58;;;0.85;;
26963;SDS011;14521;48.148;-1.656;2022-11-15T07:24:30;2.13;;;0.65;;
26963;SDS011;14521;48.148;-1.656;2022-11-15T07:28:11;3.60;;;1.02;;
26963;SDS011;14521;48.148;-1.656;2022-11-15T07:31:52;0.65;;;0.40;;
26963;SDS011;14521;48.148;-1.656;2022-11-15T07:35:33;1.80;;;0.70;;
26963;SDS011;14521;48.148;-1.656;2022-11-15T07:39:13;3.40;;;0.60;;
26963;SDS011;14521;48.148;-1.656;2022-11-15T07:43:02;2.20;;;0.75;;
26963;SDS011;14521;48.148;-1.656;2022-11-15T07:46:44;1.77;;;0.70;;
26963;SDS011;14521;48.148;-1.656;2022-11-15T07:50:25;2.05;;;0.80;;
26963;SDS011;14521;48.148;-1.656;2022-11-15T07:54:08;2.78;;;0.80;;
26963;SDS011;14521;48.148;-1.656;2022-11-15T07:57:49;1.83;;;0.40;;
26963;SDS011;14521;48.148;-1.656;2022-11-15T08:01:29;0.45;;;0.32;;
26963;SDS011;14521;48.148;-1.656;2022-11-15T08:05:11;2.55;;;0.50;;
26963;SDS011;14521;48.148;-1.656;2022-11-15T08:08:52;0.63;;;0.40;;
26963;SDS011;14521;48.148;-1.656;2022-11-15T08:12:33;5.25;;;0.70;;
26963;SDS011;14521;48.148;-1.656;2022-11-15T08:16:14;1.80;;;0.60;;
26963;SDS011;14521;48.148;-1.656;2022-11-15T08:19:55;3.70;;;0.50;;
26963;SDS011;14521;48.148;-1.656;2022-11-15T08:23:36;0.70;;;0.50;;
26963;SDS011;14521;48.148;-1.656;2022-11-15T08:27:16;1.33;;;0.68;;
26963;SDS011;14521;48.148;-1.656;2022-11-15T08:30:57;1.13;;;0.55;;
26963;SDS011;14521;48.148;-1.656;2022-11-15T08:34:38;1.00;;;0.50;;
26963;SDS011;14521;48.148;-1.656;2022-11-15T08:38:19;0.70;;;0.35;;
26963;SDS011;14521;48.148;-1.656;2022-11-15T08:42:00;1.15;;;0.38;;
26963;SDS011;14521;48.148;-1.656;2022-11-15T08:45:41;1.75;;;0.38;;
26963;SDS011;14521;48.148;-1.656;2022-11-15T08:49:21;1.55;;;0.45;;
26963;SDS011;14521;48.148;-1.656;2022-11-15T08:53:06;1.20;;;0.60;;
26963;SDS011;14521;48.148;-1.656;2022-11-15T08:56:48;0.30;;;0.20;;
26963;SDS011;14521;48.148;-1.656;2022-11-15T09:00:29;2.85;;;0.38;;
26963;SDS011;14521;48.148;-1.656;2022-11-15T09:04:10;1.00;;;0.40;;
26963;SDS011;14521;48.148;-1.656;2022-11-15T09:07:53;1.00;;;0.50;;
26963;SDS011;14521;48.148;-1.656;2022-11-15T09:11:35;2.88;;;0.52;;
26963;SDS011;14521;48.148;-1.656;2022-11-15T09:15:16;1.00;;;0.40;;
26963;SDS011;14521;48.148;-1.656;2022-11-15T09:18:57;1.05;;;0.40;;
26963;SDS011;14521;48.148;-1.656;2022-11-15T09:22:37;0.75;;;0.40;;
26963;SDS011;14521;48.148;-1.656;2022-11-15T09:26:19;0.80;;;0.28;;
26963;SDS011;14521;48.148;-1.656;2022-11-15T09:30:00;0.38;;;0.30;;
26963;SDS011;14521;48.148;-1.656;2022-11-15T09:33:43;0.90;;;0.30;;
26963;SDS011;14521;48.148;-1.656;2022-11-15T09:37:25;0.65;;;0.47;;
26963;SDS011;14521;48.148;-1.656;2022-11-15T09:41:31;0.85;;;0.40;;
26963;SDS011;14521;48.148;-1.656;2022-11-15T09:45:29;0.85;;;0.40;;
26963;SDS011;14521;48.148;-1.656;2022-11-15T09:49:31;2.05;;;0.50;;
26963;SDS011;14521;48.148;-1.656;2022-11-15T09:53:11;0.80;;;0.50;;
26963;SDS011;14521;48.148;-1.656;2022-11-15T09:56:36;1.33;;;0.47;;
26963;SDS011;14521;48.148;-1.656;2022-11-15T10:11:27;0.90;;;0.30;;
26963;SDS011;14521;48.148;-1.656;2022-11-15T10:15:05;0.22;;;0.22;;
26963;SDS011;14521;48.148;-1.656;2022-11-15T10:18:44;0.63;;;0.40;;
26963;SDS011;14521;48.148;-1.656;2022-11-15T10:22:26;0.50;;;0.38;;
26963;SDS011;14521;48.148;-1.656;2022-11-15T10:25:58;0.70;;;0.35;;
26963;SDS011;14521;48.148;-1.656;2022-11-15T10:29:27;2.67;;;0.32;;
26963;SDS011;14521;48.148;-1.656;2022-11-15T10:32:49;0.77;;;0.32;;
26963;SDS011;14521;48.148;-1.656;2022-11-15T10:39:34;2.85;;;0.40;;
26963;SDS011;14521;48.148;-1.656;2022-11-15T10:43:12;1.52;;;0.35;;
26963;SDS011;14521;48.148;-1.656;2022-11-15T10:46:37;1.30;;;0.50;;
26963;SDS011;14521;48.148;-1.656;2022-11-15T10:50:52;1.13;;;0.52;;
26963;SDS011;14521;48.148;-1.656;2022-11-15T10:53:54;2.05;;;0.57;;
26963;SDS011;14521;48.148;-1.656;2022-11-15T10:57:24;0.63;;;0.40;;
26963;SDS011;14521;48.148;-1.656;2022-11-15T11:00:51;2.33;;;0.60;;
26963;SDS011;14521;48.148;-1.656;2022-11-15T11:04:14;1.05;;;0.40;;
26963;SDS011;14521;48.148;-1.656;2022-11-15T11:07:37;0.93;;;0.40;;
26963;SDS011;14521;48.148;-1.656;2022-11-15T11:11:00;1.58;;;0.60;;
26963;SDS011;14521;48.148;-1.656;2022-11-15T11:21:53;2.47;;;0.50;;
26963;SDS011;14521;48.148;-1.656;2022-11-15T11:25:40;0.40;;;0.32;;
26963;SDS011;14521;48.148;-1.656;2022-11-15T11:29:34;2.70;;;0.40;;
26963;SDS011;14521;48.148;-1.656;2022-11-15T11:33:13;0.40;;;0.40;;
26963;SDS011;14521;48.148;-1.656;2022-11-15T11:51:38;1.98;;;0.30;;
26963;SDS011;14521;48.148;-1.656;2022-11-15T11:58:44;3.38;;;0.60;;
26963;SDS011;14521;48.148;-1.656;2022-11-15T12:02:21;1.90;;;0.53;;
26963;SDS011;14521;48.148;-1.656;2022-11-15T12:05:57;1.40;;;0.50;;
26963;SDS011;14521;48.148;-1.656;2022-11-15T12:09:32;2.17;;;0.60;;
26963;SDS011;14521;48.148;-1.656;2022-11-15T12:13:10;1.90;;;0.68;;
26963;SDS011;14521;48.148;-1.656;2022-11-15T12:16:37;1.48;;;0.63;;
26963;SDS011;14521;48.148;-1.656;2022-11-15T12:20:05;1.35;;;0.60;;
26963;SDS011;14521;48.148;-1.656;2022-11-15T12:23:48;0.65;;;0.40;;
26963;SDS011;14521;48.148;-1.656;2022-11-15T12:30:57;1.77;;;0.52;;
26963;SDS011;14521;48.148;-1.656;2022-11-15T12:37:51;1.42;;;0.70;;
26963;SDS011;14521;48.148;-1.656;2022-11-15T12:41:17;3.35;;;0.77;;
26963;SDS011;14521;48.148;-1.656;2022-11-15T12:55:28;2.88;;;0.52;;
26963;SDS011;14521;48.148;-1.656;2022-11-15T12:58:58;3.78;;;0.47;;
26963;SDS011;14521;48.148;-1.656;2022-11-15T13:02:24;3.72;;;0.95;;
26963;SDS011;14521;48.148;-1.656;2022-11-15T13:13:48;1.38;;;0.60;;
26963;SDS011;14521;48.148;-1.656;2022-11-15T13:20:39;3.75;;;0.40;;
26963;SDS011;14521;48.148;-1.656;2022-11-15T13:27:36;3.05;;;0.70;;
26963;SDS011;14521;48.148;-1.656;2022-11-15T13:31:03;5.50;;;0.65;;
26963;SDS011;14521;48.148;-1.656;2022-11-15T13:41:52;1.95;;;0.60;;
26963;SDS011;14521;48.148;-1.656;2022-11-15T13:45:15;1.60;;;0.50;;
26963;SDS011;14521;48.148;-1.656;2022-11-15T13:48:43;1.10;;;0.50;;
26963;SDS011;14521;48.148;-1.656;2022-11-15T13:52:15;1.77;;;0.60;;
26963;SDS011;14521;48.148;-1.656;2022-11-15T13:55:38;4.65;;;0.60;;
26963;SDS011;14521;48.148;-1.656;2022-11-15T13:59:07;1.55;;;0.50;;
26963;SDS011;14521;48.148;-1.656;2022-11-15T14:02:35;2.70;;;0.70;;
26963;SDS011;14521;48.148;-1.656;2022-11-15T14:13:00;1.25;;;0.50;;
26963;SDS011;14521;48.148;-1.656;2022-11-15T14:16:24;2.00;;;0.80;;
26963;SDS011;14521;48.148;-1.656;2022-11-15T14:19:58;2.22;;;0.50;;
26963;SDS011;14521;48.148;-1.656;2022-11-15T14:23:27;1.77;;;0.60;;
26963;SDS011;14521;48.148;-1.656;2022-11-15T14:26:49;2.03;;;0.50;;
26963;SDS011;14521;48.148;-1.656;2022-11-15T14:30:12;3.60;;;0.70;;
26963;SDS011;14521;48.148;-1.656;2022-11-15T14:33:38;1.17;;;0.40;;
26963;SDS011;14521;48.148;-1.656;2022-11-15T14:37:00;1.90;;;0.52;;
26963;SDS011;14521;48.148;-1.656;2022-11-15T14:40:23;2.55;;;0.52;;
26963;SDS011;14521;48.148;-1.656;2022-11-15T14:43:45;2.17;;;0.60;;
26963;SDS011;14521;48.148;-1.656;2022-11-15T14:47:07;1.30;;;0.50;;
26963;SDS011;14521;48.148;-1.656;2022-11-15T14:50:29;1.42;;;0.32;;
26963;SDS011;14521;48.148;-1.656;2022-11-15T14:53:53;3.25;;;0.55;;
26963;SDS011;14521;48.148;-1.656;2022-11-15T14:57:16;2.85;;;0.60;;
26963;SDS011;14521;48.148;-1.656;2022-11-15T15:00:40;1.95;;;0.43;;
26963;SDS011;14521;48.148;-1.656;2022-11-15T15:04:03;3.55;;;0.40;;
26963;SDS011;14521;48.148;-1.656;2022-11-15T15:07:25;1.20;;;0.40;;
26963;SDS011;14521;48.148;-1.656;2022-11-15T15:10:47;1.10;;;0.40;;
26963;SDS011;14521;48.148;-1.656;2022-11-15T15:14:09;0.75;;;0.28;;
26963;SDS011;14521;48.148;-1.656;2022-11-15T15:17:32;3.13;;;0.80;;
26963;SDS011;14521;48.148;-1.656;2022-11-15T15:20:55;2.25;;;0.52;;
26963;SDS011;14521;48.148;-1.656;2022-11-15T15:24:21;1.75;;;0.57;;
26963;SDS011;14521;48.148;-1.656;2022-11-15T15:27:43;1.58;;;0.43;;
26963;SDS011;14521;48.148;-1.656;2022-11-15T15:31:05;3.13;;;0.60;;
26963;SDS011;14521;48.148;-1.656;2022-11-15T15:34:28;1.88;;;0.50;;
26963;SDS011;14521;48.148;-1.656;2022-11-15T15:37:50;1.48;;;0.50;;
26963;SDS011;14521;48.148;-1.656;2022-11-15T15:41:16;3.50;;;0.88;;
26963;SDS011;14521;48.148;-1.656;2022-11-15T15:44:38;1.13;;;0.35;;
26963;SDS011;14521;48.148;-1.656;2022-11-15T15:48:01;2.45;;;0.80;;
26963;SDS011;14521;48.148;-1.656;2022-11-15T15:51:23;0.60;;;0.40;;
26963;SDS011;14521;48.148;-1.656;2022-11-15T15:54:45;2.83;;;0.77;;
26963;SDS011;14521;48.148;-1.656;2022-11-15T15:58:07;0.93;;;0.40;;
26963;SDS011;14521;48.148;-1.656;2022-11-15T16:01:30;0.90;;;0.47;;
26963;SDS011;14521;48.148;-1.656;2022-11-15T16:04:52;2.20;;;0.43;;
26963;SDS011;14521;48.148;-1.656;2022-11-15T16:08:21;1.73;;;0.40;;
26963;SDS011;14521;48.148;-1.656;2022-11-15T16:11:45;0.68;;;0.45;;
26963;SDS011;14521;48.148;-1.656;2022-11-15T16:15:08;1.15;;;0.50;;
26963;SDS011;14521;48.148;-1.656;2022-11-15T16:18:30;2.25;;;0.88;;
26963;SDS011;14521;48.148;-1.656;2022-11-15T16:21:54;1.55;;;0.52;;
26963;SDS011;14521;48.148;-1.656;2022-11-15T16:25:17;1.10;;;0.40;;
26963;SDS011;14521;48.148;-1.656;2022-11-15T16:28:39;1.95;;;0.80;;
26963;SDS011;14521;48.148;-1.656;2022-11-15T16:32:01;1.95;;;0.57;;
26963;SDS011;14521;48.148;-1.656;2022-11-15T16:35:23;0.60;;;0.43;;
26963;SDS011;14521;48.148;-1.656;2022-11-15T16:38:46;3.10;;;0.45;;
26963;SDS011;14521;48.148;-1.656;2022-11-15T16:42:08;2.90;;;0.50;;
26963;SDS011;14521;48.148;-1.656;2022-11-15T16:45:31;2.40;;;0.43;;
26963;SDS011;14521;48.148;-1.656;2022-11-15T16:48:55;1.67;;;0.63;;
26963;SDS011;14521;48.148;-1.656;2022-11-15T16:52:18;1.05;;;0.45;;
26963;SDS011;14521;48.148;-1.656;2022-11-15T16:55:42;2.53;;;0.65;;
26963;SDS011;14521;48.148;-1.656;2022-11-15T16:59:04;2.17;;;0.60;;
26963;SDS011;14521;48.148;-1.656;2022-11-15T17:02:27;0.47;;;0.30;;
26963;SDS011;14521;48.148;-1.656;2022-11-15T17:05:49;1.40;;;0.60;;
26963;SDS011;14521;48.148;-1.656;2022-11-15T17:09:21;1.70;;;0.52;;
26963;SDS011;14521;48.148;-1.656;2022-11-15T17:12:47;3.88;;;0.50;;
26963;SDS011;14521;48.148;-1.656;2022-11-15T17:16:11;3.53;;;0.75;;
26963;SDS011;14521;48.148;-1.656;2022-11-15T17:19:35;1.08;;;0.50;;
26963;SDS011;14521;48.148;-1.656;2022-11-15T17:22:57;1.70;;;0.43;;
26963;SDS011;14521;48.148;-1.656;2022-11-15T17:26:19;3.42;;;0.70;;
26963;SDS011;14521;48.148;-1.656;2022-11-15T17:29:51;1.20;;;0.43;;
26963;SDS011;14521;48.148;-1.656;2022-11-15T17:33:14;2.45;;;0.68;;
26963;SDS011;14521;48.148;-1.656;2022-11-15T17:36:36;3.30;;;0.90;;
26963;SDS011;14521;48.148;-1.656;2022-11-15T17:39:58;9.52;;;1.50;;
26963;SDS011;14521;48.148;-1.656;2022-11-15T17:43:20;17.00;;;2.67;;
26963;SDS011;14521;48.148;-1.656;2022-11-15T17:46:43;7.97;;;2.33;;
26963;SDS011;14521;48.148;-1.656;2022-11-15T17:50:05;13.90;;;4.43;;
26963;SDS011;14521;48.148;-1.656;2022-11-15T17:53:31;17.15;;;5.55;;
26963;SDS011;14521;48.148;-1.656;2022-11-15T17:56:55;14.85;;;4.32;;
26963;SDS011;14521;48.148;-1.656;2022-11-15T18:00:17;12.02;;;3.50;;
26963;SDS011;14521;48.148;-1.656;2022-11-15T18:03:41;8.82;;;3.38;;
26963;SDS011;14521;48.148;-1.656;2022-11-15T18:07:04;19.52;;;3.70;;
26963;SDS011;14521;48.148;-1.656;2022-11-15T18:10:26;9.25;;;3.47;;
26963;SDS011;14521;48.148;-1.656;2022-11-15T18:13:50;12.55;;;3.90;;
26963;SDS011;14521;48.148;-1.656;2022-11-15T18:17:17;9.27;;;3.72;;
26963;SDS011;14521;48.148;-1.656;2022-11-15T18:20:39;8.57;;;3.80;;
26963;SDS011;14521;48.148;-1.656;2022-11-15T18:24:01;9.95;;;2.83;;
26963;SDS011;14521;48.148;-1.656;2022-11-15T18:27:24;7.25;;;2.65;;
26963;SDS011;14521;48.148;-1.656;2022-11-15T18:30:46;13.20;;;3.20;;
26963;SDS011;14521;48.148;-1.656;2022-11-15T18:34:09;8.35;;;2.33;;
26963;SDS011;14521;48.148;-1.656;2022-11-15T18:37:31;4.78;;;2.10;;
26963;SDS011;14521;48.148;-1.656;2022-11-15T18:40:53;9.75;;;2.55;;
26963;SDS011;14521;48.148;-1.656;2022-11-15T18:44:16;12.65;;;2.47;;
26963;SDS011;14521;48.148;-1.656;2022-11-15T18:47:38;3.85;;;2.08;;
26963;SDS011;14521;48.148;-1.656;2022-11-15T18:51:04;6.57;;;2.03;;
26963;SDS011;14521;48.148;-1.656;2022-11-15T18:54:28;10.10;;;2.22;;
26963;SDS011;14521;48.148;-1.656;2022-11-15T18:57:52;8.27;;;1.80;;
26963;SDS011;14521;48.148;-1.656;2022-11-15T19:01:15;13.40;;;2.72;;
26963;SDS011;14521;48.148;-1.656;2022-11-15T19:04:44;4.55;;;1.95;;
26963;SDS011;14521;48.148;-1.656;2022-11-15T19:08:07;7.20;;;2.10;;
26963;SDS011;14521;48.148;-1.656;2022-11-15T19:11:30;6.63;;;2.10;;
26963;SDS011;14521;48.148;-1.656;2022-11-15T19:14:53;9.85;;;2.70;;
26963;SDS011;14521;48.148;-1.656;2022-11-15T19:18:15;4.25;;;1.85;;
26963;SDS011;14521;48.148;-1.656;2022-11-15T19:21:38;2.85;;;1.25;;
26963;SDS011;14521;48.148;-1.656;2022-11-15T19:25:00;4.57;;;1.30;;
26963;SDS011;14521;48.148;-1.656;2022-11-15T19:28:25;4.20;;;2.55;;
26963;SDS011;14521;48.148;-1.656;2022-11-15T19:31:48;5.13;;;1.80;;
26963;SDS011;14521;48.148;-1.656;2022-11-15T19:35:10;6.82;;;2.15;;
26963;SDS011;14521;48.148;-1.656;2022-11-15T19:38:33;4.00;;;1.77;;
26963;SDS011;14521;48.148;-1.656;2022-11-15T19:41:56;5.75;;;1.88;;
26963;SDS011;14521;48.148;-1.656;2022-11-15T19:45:18;6.95;;;1.80;;
26963;SDS011;14521;48.148;-1.656;2022-11-15T19:48:41;10.30;;;2.03;;
26963;SDS011;14521;48.148;-1.656;2022-11-15T19:52:03;6.45;;;1.70;;
26963;SDS011;14521;48.148;-1.656;2022-11-15T19:55:26;3.03;;;1.67;;
26963;SDS011;14521;48.148;-1.656;2022-11-15T19:58:49;6.45;;;1.80;;
26963;SDS011;14521;48.148;-1.656;2022-11-15T20:02:13;7.70;;;1.73;;
26963;SDS011;14521;48.148;-1.656;2022-11-15T20:05:35;4.55;;;1.80;;
26963;SDS011;14521;48.148;-1.656;2022-11-15T20:08:57;7.38;;;2.10;;
26963;SDS011;14521;48.148;-1.656;2022-11-15T20:12:19;6.82;;;2.20;;
26963;SDS011;14521;48.148;-1.656;2022-11-15T20:15:42;5.18;;;1.60;;
26963;SDS011;14521;48.148;-1.656;2022-11-15T20:19:04;4.47;;;1.98;;
26963;SDS011;14521;48.148;-1.656;2022-11-15T20:22:26;4.25;;;1.90;;
26963;SDS011;14521;48.148;-1.656;2022-11-15T20:25:48;3.63;;;1.73;;
26963;SDS011;14521;48.148;-1.656;2022-11-15T20:29:11;3.22;;;1.65;;
26963;SDS011;14521;48.148;-1.656;2022-11-15T20:32:34;6.38;;;2.65;;
26963;SDS011;14521;48.148;-1.656;2022-11-15T20:35:57;2.58;;;1.73;;
26963;SDS011;14521;48.148;-1.656;2022-11-15T20:39:24;4.25;;;1.50;;
26963;SDS011;14521;48.148;-1.656;2022-11-15T20:42:46;4.25;;;1.50;;
26963;SDS011;14521;48.148;-1.656;2022-11-15T20:46:09;5.18;;;2.17;;
26963;SDS011;14521;48.148;-1.656;2022-11-15T20:49:32;3.65;;;1.40;;
26963;SDS011;14521;48.148;-1.656;2022-11-15T20:52:54;3.80;;;1.55;;
26963;SDS011;14521;48.148;-1.656;2022-11-15T20:59:42;6.03;;;1.58;;
26963;SDS011;14521;48.148;-1.656;2022-11-15T21:03:05;3.00;;;1.48;;
26963;SDS011;14521;48.148;-1.656;2022-11-15T21:06:27;5.20;;;1.70;;
26963;SDS011;14521;48.148;-1.656;2022-11-15T21:09:49;2.85;;;1.40;;
26963;SDS011;14521;48.148;-1.656;2022-11-15T21:13:30;3.10;;;1.67;;
26963;SDS011;14521;48.148;-1.656;2022-11-15T21:16:52;3.63;;;1.55;;
26963;SDS011;14521;48.148;-1.656;2022-11-15T21:20:15;3.67;;;1.48;;
26963;SDS011;14521;48.148;-1.656;2022-11-15T21:23:37;3.28;;;1.40;;
26963;SDS011;14521;48.148;-1.656;2022-11-15T21:26:59;3.92;;;1.50;;
26963;SDS011;14521;48.148;-1.656;2022-11-15T21:30:22;5.13;;;1.67;;
26963;SDS011;14521;48.148;-1.656;2022-11-15T21:33:44;3.80;;;1.40;;
26963;SDS011;14521;48.148;-1.656;2022-11-15T21:37:06;3.53;;;1.52;;
26963;SDS011;14521;48.148;-1.656;2022-11-15T21:40:29;2.25;;;1.20;;
26963;SDS011;14521;48.148;-1.656;2022-11-15T21:43:51;3.60;;;1.40;;
26963;SDS011;14521;48.148;-1.656;2022-11-15T21:47:13;12.45;;;1.23;;
26963;SDS011;14521;48.148;-1.656;2022-11-15T21:50:36;4.32;;;1.23;;
26963;SDS011;14521;48.148;-1.656;2022-11-15T21:53:58;3.47;;;1.55;;
26963;SDS011;14521;48.148;-1.656;2022-11-15T21:57:21;1.80;;;1.10;;
26963;SDS011;14521;48.148;-1.656;2022-11-15T22:00:43;3.90;;;1.30;;
26963;SDS011;14521;48.148;-1.656;2022-11-15T22:04:24;4.18;;;1.60;;
26963;SDS011;14521;48.148;-1.656;2022-11-15T22:07:46;2.60;;;1.40;;
26963;SDS011;14521;48.148;-1.656;2022-11-15T22:11:08;2.47;;;1.15;;
26963;SDS011;14521;48.148;-1.656;2022-11-15T22:14:31;3.08;;;1.25;;
26963;SDS011;14521;48.148;-1.656;2022-11-15T22:17:53;2.30;;;1.48;;
26963;SDS011;14521;48.148;-1.656;2022-11-15T22:21:18;2.17;;;1.27;;
26963;SDS011;14521;48.148;-1.656;2022-11-15T22:24:41;3.70;;;1.08;;
26963;SDS011;14521;48.148;-1.656;2022-11-15T22:28:03;3.72;;;1.15;;
26963;SDS011;14521;48.148;-1.656;2022-11-15T22:31:25;4.28;;;1.30;;
26963;SDS011;14521;48.148;-1.656;2022-11-15T22:34:48;3.65;;;1.40;;
26963;SDS011;14521;48.148;-1.656;2022-11-15T22:38:10;2.28;;;1.20;;
26963;SDS011;14521;48.148;-1.656;2022-11-15T22:41:32;3.05;;;1.40;;
26963;SDS011;14521;48.148;-1.656;2022-11-15T22:44:54;2.63;;;1.35;;
26963;SDS011;14521;48.148;-1.656;2022-11-15T22:48:21;3.13;;;1.33;;
26963;SDS011;14521;48.148;-1.656;2022-11-15T22:51:47;2.55;;;1.08;;
26963;SDS011;14521;48.148;-1.656;2022-11-15T22:55:10;1.10;;;0.90;;